Latest Weather Observations for Bowen Airport AWS

IDQ60801

Issued at 4:32 pm EST Thursday 30 June 2016 (issued every 30 minutes, with the page automatically refreshed every 10 minutes)

About weather observations | Map of weather stations | Latest weather observations for QLD | Other Formats
Station Details ID: 033327 Name: BOWEN AIRPORT AWS Lat: -20.02 Lon: 148.21 Height: 5.9 m
Data from the previous 72 hours. | See also: Recent months at Bowen Airport AWS
Date/Time
EST
Temp
°C
App
Temp
°C
Dew
Point
°C
Rel
Hum
%
Delta-T
°C
Wind Press
QNH
hPa
Press
MSL
hPa
Rain since
9am
mm
Dir  Spd
km/h
Gust
km/h
Spd
kts
Gust
kts
30/04:30pm 24.7 24.8 16.4 60 5.1 E 11 15 6 8 1017.9 1017.9 0.0
30/04:00pm 24.6 23.9 15.5 57 5.5 ESE 13 15 7 8 1017.8 1017.8 0.0
30/03:30pm 24.4 23.8 15.6 58 5.3 SE 13 17 7 9 1017.8 1017.8 0.0
30/03:00pm 26.0 25.6 16.3 55 6.0 ESE 13 19 7 10 1017.8 1017.8 0.0
30/02:30pm 24.9 23.9 15.5 56 5.7 ESE 15 19 8 10 1017.8 1017.8 0.0
30/02:00pm 24.8 23.6 16.2 58 5.2 ESE 17 20 9 11 1018.1 1018.1 0.0
30/01:30pm 24.7 23.4 15.9 58 5.3 ESE 17 20 9 11 1018.4 1018.4 0.0
30/01:00pm 24.5 23.7 16.0 59 5.2 ESE 15 20 8 11 1018.8 1018.8 0.0
30/12:30pm 23.9 22.6 15.7 60 5.0 SE 17 24 9 13 1019.2 1019.2 0.0
30/12:00pm 24.5 23.3 16.2 60 5.1 SE 17 22 9 12 1019.7 1019.7 0.0
30/11:30am 23.6 22.0 15.9 62 4.7 SE 19 22 10 12 1020.1 1020.1 0.0
30/11:00am 23.3 22.5 16.1 64 4.4 SE 15 20 8 11 1020.6 1020.6 0.0
30/10:30am 22.6 21.1 15.4 64 4.3 SE 17 22 9 12 1021.0 1021.0 0.0
30/10:00am 22.0 20.4 14.9 64 4.2 SE 17 20 9 11 1021.2 1021.2 0.0
30/09:30am 21.6 19.9 14.7 65 4.1 SE 17 22 9 12 1021.3 1021.3 0.0
30/09:00am 20.6 19.1 14.3 67 3.7 SSE 15 19 8 10 1021.3 1021.3 0.0
30/08:30am 18.6 18.3 14.5 77 2.4 SW 9 11 5 6 1021.0 1021.0 0.0
30/08:00am 16.2 16.0 13.5 84 1.5 SSW 7 9 4 5 1020.9 1020.9 0.0
30/07:30am 14.1 13.3 12.8 92 0.7 SW 9 11 5 6 1020.8 1020.8 0.0
30/07:00am 12.8 10.9 11.9 94 0.5 SW 13 13 7 7 1020.7 1020.7 0.0
30/06:30am 12.4 11.5 11.5 94 0.5 SW 7 9 4 5 1020.4 1020.4 0.0
30/06:00am 12.7 11.5 11.6 93 0.6 SSW 9 11 5 6 1020.2 1020.2 0.0
30/05:30am 13.2 11.6 11.4 89 1.0 SSW 11 13 6 7 1020.0 1020.0 0.0
30/05:00am 14.2 13.4 11.7 85 1.3 SW 7 11 4 6 1019.9 1019.9 0.0
30/04:30am 16.1 14.7 12.3 78 2.1 SSE 11 15 6 8 1019.9 1019.9 0.0
30/04:00am 16.0 14.5 12.0 77 2.2 SSE 11 17 6 9 1020.0 1020.0 0.0
30/03:30am 16.1 14.7 12.1 77 2.2 SSE 11 17 6 9 1020.0 1020.0 0.0
30/03:00am 16.4 14.6 12.2 76 2.3 SSE 13 19 7 10 1020.3 1020.3 0.0
30/02:30am 16.3 14.4 11.9 75 2.4 SSE 13 19 7 10 1020.6 1020.6 0.0
30/02:00am 16.7 14.1 12.0 74 2.6 SSE 17 22 9 12 1020.9 1020.9 0.0
30/01:30am 16.4 14.1 11.8 74 2.5 SSE 15 24 8 13 1021.3 1021.3 0.0
30/01:00am 16.6 14.0 12.0 74 2.5 SSE 17 22 9 12 1021.7 1021.7 0.0
30/12:30am 16.7 13.8 12.3 75 2.4 SSE 19 26 10 14 1021.8 1021.8 0.0
30/12:00am 16.8 13.7 12.3 75 2.5 SSE 20 30 11 16 1021.9 1021.9 0.0
 
Date/Time
EST
Temp
°C
App
Temp
°C
Dew
Point
°C
Rel
Hum
%
Delta-T
°C
Wind Press
QNH
hPa
Press
MSL
hPa
Rain since
9am
mm
Dir  Spd
km/h
Gust
km/h
Spd
kts
Gust
kts
29/11:30pm 16.4 13.9 12.2 76 2.3 SSE 17 24 9 13 1022.1 1022.1 0.0
29/11:00pm 16.4 14.0 12.6 78 2.1 SSE 17 22 9 12 1022.4 1022.4 0.0
29/10:30pm 16.6 14.2 12.8 78 2.1 SSE 17 22 9 12 1022.5 1022.5 0.0
29/10:00pm 16.7 14.3 12.8 78 2.2 SSE 17 22 9 12 1022.6 1022.6 0.0
29/09:30pm 16.9 14.2 12.8 77 2.3 SSE 19 24 10 13 1022.8 1022.8 0.0
29/09:00pm 16.8 14.4 12.5 76 2.4 SSE 17 20 9 11 1022.7 1022.7 0.0
29/08:30pm 16.8 14.4 12.5 76 2.4 SSE 17 20 9 11 1022.6 1022.6 0.0
29/08:00pm 17.1 14.7 12.8 76 2.4 SSE 17 20 9 11 1022.3 1022.3 0.0
29/07:30pm 17.9 15.2 13.6 76 2.4 SSE 20 30 11 16 1022.0 1022.0 0.0
29/07:00pm 18.3 15.6 13.6 74 2.7 SE 20 28 11 15 1021.7 1021.7 0.0
29/06:30pm 18.4 15.8 13.9 75 2.6 SSE 20 28 11 15 1021.6 1021.6 0.0
29/06:00pm 18.6 16.0 13.7 73 2.8 SSE 20 28 11 15 1021.4 1021.4 0.0
29/05:30pm 19.1 17.0 13.5 70 3.2 SSE 17 22 9 12 1021.3 1021.3 0.0
29/05:00pm 20.1 16.9 13.1 64 4.0 SE 22 28 12 15 1021.1 1021.1 0.0
29/04:30pm 20.8 17.3 12.2 58 4.8 SE 22 28 12 15 1021.0 1021.0 0.0
29/04:00pm 21.1 17.7 12.5 58 4.8 SE 22 28 12 15 1020.9 1020.9 0.0
29/03:30pm 21.2 18.1 12.3 57 5.0 SE 20 28 11 15 1020.9 1020.9 0.0
29/03:00pm 21.5 18.8 11.8 54 5.4 SE 17 24 9 13 1020.8 1020.8 0.0
29/02:30pm 21.6 19.1 12.2 55 5.3 SE 17 22 9 12 1020.8 1020.8 0.0
29/02:00pm 21.7 19.0 11.7 53 5.6 SE 17 24 9 13 1020.8 1020.8 0.0
29/01:30pm 21.3 17.9 11.3 53 5.5 SE 20 26 11 14 1021.0 1021.0 0.0
29/01:00pm 21.1 17.4 11.4 54 5.4 SE 22 28 12 15 1021.5 1021.5 0.0
29/12:30pm 20.9 17.1 11.3 54 5.3 SE 22 30 12 16 1022.1 1022.1 0.0
29/12:00pm 20.5 16.2 10.6 53 5.4 SE 24 32 13 17 1022.5 1022.5 0.0
29/11:30am 19.8 15.7 10.0 53 5.3 SE 22 30 12 16 1022.9 1022.9 0.0
29/11:00am 19.2 14.6 9.7 54 5.0 SE 24 32 13 17 1023.2 1023.2 0.0
29/10:30am 19.1 14.6 8.7 51 5.4 SSE 22 33 12 18 1023.3 1023.3 0.0
29/10:00am 18.2 13.1 7.6 50 5.3 SE 24 30 13 16 1023.7 1023.7 0.0
29/09:30am 17.6 12.1 7.4 51 5.1 SE 26 33 14 18 1023.6 1023.6 0.0
29/09:00am 16.9 11.2 6.7 51 5.0 SSE 26 35 14 19 1023.6 1023.6 0.0
29/08:30am 15.9 9.6 5.5 50 5.0 SSE 28 37 15 20 1023.9 1023.9 0.0
29/08:00am 15.3 11.0 5.2 51 4.8 S 17 32 9 17 1023.8 1023.8 0.0
29/07:30am 14.1 10.0 4.4 52 4.5 SSE 15 24 8 13 1023.5 1023.5 0.0
29/07:00am 9.4 6.3 5.6 77 1.7 SSW 11 15 6 8 1023.3 1023.3 0.0
29/06:30am 10.9 6.6 3.2 59 3.4 S 15 20 8 11 1023.1 1023.1 0.0
29/06:00am 13.4 8.7 2.9 49 4.6 SSE 17 26 9 14 1023.0 1023.0 0.0
29/05:30am 13.3 8.6 3.1 50 4.5 SSE 17 20 9 11 1022.8 1022.8 0.0
29/05:00am 13.4 8.7 3.2 50 4.5 SSE 17 24 9 13 1022.7 1022.7 0.0
29/04:30am 13.3 8.6 3.4 51 4.4 SSE 17 26 9 14 1022.6 1022.6 0.0
29/04:00am 13.6 9.0 3.7 51 4.5 SSE 17 22 9 12 1022.6 1022.6 0.0
29/03:30am 13.6 9.4 3.7 51 4.5 SSE 15 20 8 11 1022.8 1022.8 0.0
29/03:00am 14.0 9.1 4.0 51 4.5 SSE 19 22 10 12 1022.8 1022.8 0.0
29/02:30am 14.1 9.3 4.4 52 4.5 SSE 19 22 10 12 1023.1 1023.1 0.0
29/02:00am 14.4 9.6 4.7 52 4.5 SSE 19 26 10 14 1023.3 1023.3 0.0
29/01:30am 14.5 9.2 4.8 52 4.5 SSE 22 30 12 16 1023.4 1023.4 0.0
29/01:00am 14.6 9.3 4.9 52 4.5 SSE 22 32 12 17 1023.5 1023.5 0.0
29/12:30am 14.7 9.1 5.2 53 4.5 SSE 24 32 13 17 1023.5 1023.5 0.0
29/12:00am 15.0 9.4 5.5 53 4.5 SSE 24 35 13 19 1023.7 1023.7 0.0
 
Date/Time
EST
Temp
°C
App
Temp
°C
Dew
Point
°C
Rel
Hum
%
Delta-T
°C
Wind Press
QNH
hPa
Press
MSL
hPa
Rain since
9am
mm
Dir  Spd
km/h
Gust
km/h
Spd
kts
Gust
kts
28/11:30pm 15.3 9.7 5.5 52 4.7 SSE 24 32 13 17 1023.6 1023.6 0.0
28/11:00pm 15.7 10.9 5.6 51 4.8 SSE 20 28 11 15 1023.7 1023.7 0.0
28/10:30pm 16.0 11.3 6.2 52 4.8 SSE 20 28 11 15 1023.6 1023.6 0.0
28/10:00pm 16.5 11.2 6.6 52 4.8 SSE 24 33 13 18 1023.5 1023.5 0.0
28/09:30pm 16.9 12.4 7.0 52 4.9 SSE 20 33 11 18 1023.2 1023.2 0.0
28/09:00pm 17.7 12.1 8.6 55 4.7 SE 28 35 15 19 1022.9 1022.9 0.0
28/08:30pm 17.7 13.5 9.6 59 4.3 SSE 22 28 12 15 1022.6 1022.6 0.0
28/08:00pm 17.4 14.4 10.5 64 3.7 SSE 17 24 9 13 1022.4 1022.4 0.0
28/07:30pm 17.2 15.1 11.0 67 3.3 SE 13 19 7 10 1022.1 1022.1 0.0
28/07:00pm 17.7 15.2 11.0 65 3.6 SE 15 22 8 12 1021.7 1021.7 0.0
28/06:30pm 18.7 15.2 10.8 60 4.3 SE 20 26 11 14 1021.3 1021.3 0.0
28/06:00pm 19.1 15.6 12.1 64 3.9 SE 22 30 12 16 1020.8 1020.8 0.0
28/05:30pm 20.3 19.1 15.1 72 3.1 E 15 22 8 12 1020.2 1020.2 0.0
28/05:00pm 20.9 19.7 15.0 69 3.5 E 15 19 8 10 1019.9 1019.9 0.0
28/04:30pm 21.9 21.1 14.0 61 4.6 ESE 11 17 6 9 1019.6 1019.6 0.0
28/04:00pm 22.0 20.6 14.4 62 4.4 ESE 15 19 8 10 1019.3 1019.3 0.0
28/03:30pm 22.6 21.5 13.1 55 5.5 ESE 11 15 6 8 1019.1 1019.1 0.0
28/03:00pm 22.5 20.9 12.7 54 5.6 ESE 13 17 7 9 1019.0 1019.0 0.0
28/02:30pm 23.0 21.5 13.2 54 5.7 ESE 13 17 7 9 1018.9 1018.9 0.0
28/02:00pm 22.9 22.0 13.7 56 5.3 ESE 11 19 6 10 1019.0 1019.0 0.0
28/01:30pm 22.0 20.5 13.1 57 5.1 E 13 17 7 9 1019.2 1019.2 0.0
28/01:00pm 22.0 20.1 13.1 57 5.1 ESE 15 19 8 10 1019.5 1019.5 0.0
28/12:30pm 21.6 19.8 13.2 59 4.8 ESE 15 20 8 11 1019.9 1019.9 0.0
28/12:00pm 21.4 19.7 13.6 61 4.5 E 15 20 8 11 1020.2 1020.2 0.0
28/11:30am 21.4 19.9 14.1 63 4.2 ESE 15 19 8 10 1020.5 1020.5 0.0
28/11:00am 21.0 19.9 13.2 61 4.4 SE 11 15 6 8 1020.7 1020.7 0.0
28/10:30am 20.5 18.7 13.2 63 4.2 SE 15 22 8 12 1021.0 1021.0 0.0
28/10:00am 20.0 18.5 13.2 65 3.9 SSE 13 19 7 10 1021.1 1021.1 0.0
28/09:30am 19.5 18.7 13.0 66 3.7 S 9 17 5 9 1021.2 1021.2 0.0
28/09:00am 18.7 17.0 12.5 67 3.4 S 13 20 7 11 1021.0 1021.0 0.2
28/08:30am 17.9 15.6 11.9 68 3.3 SSW 15 19 8 10 1021.0 1021.0 0.2
28/08:00am 17.0 13.9 11.7 71 2.9 SSW 19 22 10 12 1020.6 1020.6 0.2
28/07:30am 16.1 13.7 11.5 74 2.5 SSW 15 19 8 10 1020.2 1020.2 0.2
28/07:00am 15.6 13.8 12.0 79 2.0 SSW 13 17 7 9 1019.7 1019.7 0.2
28/06:30am 16.0 14.2 12.2 78 2.1 SSW 13 17 7 9 1019.2 1019.2 0.2
28/06:00am 16.4 15.9 12.6 78 2.1 SSW 7 15 4 8 1018.7 1018.7 0.2
28/05:30am 16.6 14.8 13.3 81 1.8 SW 15 19 8 10 1018.2 1018.2 0.2
28/05:00am 17.0 14.9 13.5 80 2.0 SSW 17 22 9 12 1017.9 1017.9 0.2
28/04:30am 17.3 14.8 13.6 79 2.1 SSW 19 26 10 14 1017.6 1017.6 0.2
28/04:00am 17.6 15.0 13.9 79 2.1 SW 20 26 11 14 1017.4 1017.4 0.2
28/03:30am 18.2 16.0 14.3 78 2.2 SSW 19 22 10 12 1017.5 1017.5 0.2
28/03:00am 18.4 16.3 14.7 79 2.1 SSW 19 24 10 13 1017.6 1017.6 0.2
28/02:30am 18.9 17.5 15.6 81 1.9 SSW 17 24 9 13 1017.5 1017.5 0.2
28/02:00am 19.2 18.1 16.4 84 1.7 SW 17 22 9 12 1017.3 1017.3 0.2
28/01:30am 19.7 19.1 17.5 87 1.3 SW 17 19 9 10 1017.4 1017.4 0.2
28/01:00am 20.1 20.6 18.4 90 1.1 SW 13 17 7 9 1017.4 1017.4 0.2
28/12:30am 20.8 22.1 20.1 96 0.4 SW 13 15 7 8 1017.3 1017.3 0.2
28/12:00am 21.1 23.9 20.8 98 0.2 SW 7 11 4 6 1017.1 1017.1 0.2
 
Date/Time
EST
Temp
°C
App
Temp
°C
Dew
Point
°C
Rel
Hum
%
Delta-T
°C
Wind Press
QNH
hPa
Press
MSL
hPa
Rain since
9am
mm
Dir  Spd
km/h
Gust
km/h
Spd
kts
Gust
kts
27/11:30pm 21.1 23.0 20.6 97 0.3 SSW 11 11 6 6 1017.1 1017.1 0.2
27/11:00pm 21.3 24.2 20.6 96 0.5 SSW 6 7 3 4 1017.1 1017.1 0.2
27/10:30pm 22.1 25.8 21.4 96 0.5 SSW 4 6 2 3 1017.1 1017.1 0.2
27/10:00pm 22.1 25.2 21.4 96 0.5 SSW 7 11 4 6 1017.2 1017.2 0.0
27/09:30pm 22.3 25.5 21.6 96 0.5 SSW 7 9 4 5 1017.1 1017.1 0.0
27/09:00pm 22.3 25.8 21.1 93 0.8 W 4 6 2 3 1016.9 1016.9 0.0
27/08:30pm 23.0 26.6 22.0 94 0.7 W 6 7 3 4 1017.0 1017.0 0.0
27/08:00pm 22.7 26.1 21.7 94 0.7 NW 6 6 3 3 1016.6 1016.6 0.0
27/07:30pm 22.5 26.9 21.3 93 0.8 CALM 0 0 0 0 1016.4 1016.4 0.0
27/07:00pm 22.9 27.3 21.4 91 1.0 CALM 0 0 0 0 1016.3 1016.3 0.0
27/06:30pm 23.3 27.1 21.6 90 1.1 N 4 6 2 3 1015.7 1015.7 0.0
27/06:00pm 23.8 27.1 21.5 87 1.5 N 6 7 3 4 1015.6 1015.6 0.0
27/05:30pm 24.3 27.9 21.2 83 2.0 N 4 7 2 4 1015.3 1015.3 0.0
27/05:00pm 25.0 27.7 21.3 80 2.4 N 9 13 5 7 1014.7 1014.7 0.0

Other Formats:

Comma delimited format used in spreadsheet applications
http://www.bom.gov.au/fwo/IDQ60801/IDQ60801.94383.axf

JavaScript Object Notation format (JSON) in row-major order
http://www.bom.gov.au/fwo/IDQ60801/IDQ60801.94383.json